Time;durP1;ratioP1;P1;durP2;ratioP2;P2;SDS_P1;SDS_P2;PMS_P1;PMS_P2;Temp;Humidity;BMP_temperature;BMP_pressure;BME280_temperature;BME280_humidity;BME280_pressure;Samples;Min_cycle;Max_cycle;Signal;HPM_P1;HPM_P2
2023/05/06 00:01:51;;;;;;;18.13;15.40;;;;;;;15.39;100.00;96299.97;5058712;28;20726;-88
2023/05/06 00:04:16;;;;;;;18.33;16.17;;;;;;;15.41;100.00;96297.13;5071108;28;20071;-88
2023/05/06 00:06:42;;;;;;;19.97;15.70;;;;;;;15.27;100.00;96299.63;5065298;28;20021;-87
2023/05/06 00:09:13;;;;;;;20.40;17.20;;;;;;;15.31;100.00;96298.22;5053160;28;20032;-88
2023/05/06 00:11:39;;;;;;;19.30;17.20;;;;;;;15.44;100.00;96294.91;5054903;28;20036;-88
2023/05/06 00:14:11;;;;;;;20.53;17.50;;;;;;;15.29;100.00;96294.97;5071848;28;20028;-88
2023/05/06 00:16:37;;;;;;;19.40;16.90;;;;;;;15.40;100.00;96287.53;5070228;28;20111;-88
2023/05/06 00:19:03;;;;;;;19.77;17.67;;;;;;;15.75;100.00;96284.03;5055020;28;20082;-88
2023/05/06 00:21:28;;;;;;;20.73;18.43;;;;;;;15.67;100.00;96283.34;5069742;28;20035;-88
2023/05/06 00:23:54;;;;;;;23.00;18.00;;;;;;;15.52;100.00;96272.75;5060232;28;20037;-88
2023/05/06 00:26:19;;;;;;;21.30;18.53;;;;;;;15.45;100.00;96282.47;5037754;28;20037;-88
2023/05/06 00:28:45;;;;;;;22.63;18.80;;;;;;;15.67;100.00;96281.50;5057050;28;20126;-88
2023/05/06 00:31:11;;;;;;;22.40;19.20;;;;;;;15.82;100.00;96280.63;5085262;28;20032;-88
2023/05/06 00:33:36;;;;;;;21.53;18.67;;;;;;;15.74;100.00;96276.28;5050912;28;20029;-88
2023/05/06 00:36:02;;;;;;;22.50;20.10;;;;;;;15.82;100.00;96275.31;5063373;28;20029;-88
2023/05/06 00:38:29;;;;;;;24.47;18.47;;;;;;;15.71;100.00;96281.94;5049086;28;20052;-86
2023/05/06 00:40:54;;;;;;;21.27;19.00;;;;;;;15.84;100.00;96275.94;5050735;28;20166;-88
2023/05/06 00:43:20;;;;;;;23.43;19.00;;;;;;;15.75;100.00;96270.75;5065047;28;20044;-88
2023/05/06 00:45:47;;;;;;;22.33;19.37;;;;;;;15.79;100.00;96273.84;5050573;28;20029;-88
2023/05/06 00:48:13;;;;;;;24.00;20.70;;;;;;;15.72;100.00;96279.09;5045895;28;20036;-88
2023/05/06 00:50:39;;;;;;;22.93;20.53;;;;;;;15.69;100.00;96271.56;5043696;28;20029;-88
2023/05/06 00:53:08;;;;;;;23.40;20.00;;;;;;;15.82;100.00;96262.06;5071121;28;20448;-88
2023/05/06 00:55:43;;;;;;;22.73;19.93;;;;;;;15.70;100.00;96262.56;5066988;28;20386;-88
2023/05/06 00:58:10;;;;;;;24.10;21.47;;;;;;;15.75;100.00;96262.00;5072918;28;20479;-88
2023/05/06 01:00:43;;;;;;;23.73;20.57;;;;;;;15.84;100.00;96254.75;5066668;28;20049;-88
2023/05/06 01:03:09;;;;;;;23.93;20.77;;;;;;;15.73;100.00;96264.84;5060934;28;20537;-88
2023/05/06 01:05:53;;;;;;;30.33;24.97;;;;;;;15.53;100.00;96269.94;5081123;28;20039;-88
2023/05/06 01:08:43;;;;;;;27.67;24.30;;;;;;;15.63;100.00;96269.63;5066911;28;20051;-88
2023/05/06 01:11:43;;;;;;;25.83;22.23;;;;;;;15.77;100.00;96274.06;5082703;28;20090;-88
2023/05/06 01:14:37;;;;;;;23.33;20.23;;;;;;;15.56;100.00;96274.88;5059662;28;20133;-88
2023/05/06 01:17:20;;;;;;;21.27;18.97;;;;;;;15.48;100.00;96271.50;5080111;28;20484;-88
2023/05/06 01:20:15;;;;;;;23.70;20.60;;;;;;;15.37;100.00;96275.47;5063303;28;20033;-89
2023/05/06 01:22:57;;;;;;;26.27;19.77;;;;;;;15.39;100.00;96277.94;5059980;28;20401;-87
2023/05/06 01:25:22;;;;;;;24.90;20.47;;;;;;;15.30;100.00;96271.94;5055180;28;20040;-88
2023/05/06 01:27:49;;;;;;;22.57;19.70;;;;;;;15.56;100.00;96268.75;5078744;28;20050;-80
2023/05/06 01:30:17;;;;;;;23.43;20.73;;;;;;;15.70;100.00;96275.03;5074494;28;20029;-88
2023/05/06 01:32:48;;;;;;;22.73;19.80;;;;;;;15.77;100.00;96267.94;5055635;28;20032;-87
2023/05/06 01:35:37;;;;;;;22.43;19.87;;;;;;;15.50;100.00;96265.00;5062913;28;20086;-87
2023/05/06 01:38:40;;;;;;;22.23;18.37;;;;;;;15.80;100.00;96267.56;5060287;28;20182;-87
2023/05/06 01:41:15;;;;;;;16.27;13.65;;;;;;;15.65;100.00;96266.78;5081520;28;20025;-88
2023/05/06 01:43:46;;;;;;;21.47;18.53;;;;;;;15.36;100.00;96262.41;5064258;28;20070;-87
2023/05/06 01:46:16;;;;;;;22.50;18.97;;;;;;;15.36;100.00;96262.41;5051370;28;20029;-87
2023/05/06 01:48:45;;;;;;;23.87;19.43;;;;;;;15.45;100.00;96263.94;5068315;28;20032;-87
2023/05/06 01:51:10;;;;;;;22.50;19.90;;;;;;;15.78;100.00;96264.25;5047926;28;20037;-87
2023/05/06 01:53:36;;;;;;;22.50;19.87;;;;;;;15.81;100.00;96271.03;5054531;28;20086;-87
2023/05/06 01:56:02;;;;;;;23.00;19.50;;;;;;;15.48;100.00;96267.00;5072764;28;20025;-87
2023/05/06 01:58:27;;;;;;;22.43;20.00;;;;;;;15.37;100.00;96277.31;5073789;28;20028;-87
2023/05/06 02:00:55;;;;;;;22.83;19.87;;;;;;;15.41;100.00;96275.91;5056769;28;20494;-87
2023/05/06 02:03:21;;;;;;;22.43;19.90;;;;;;;15.50;100.00;96270.31;5074990;28;20032;-87
2023/05/06 02:05:46;;;;;;;23.47;20.17;;;;;;;15.61;100.00;96265.50;5070592;28;20078;-87
2023/05/06 02:08:20;;;;;;;22.43;19.03;;;;;;;15.34;100.00;96273.19;5058110;28;20024;-87
2023/05/06 02:10:46;;;;;;;22.50;20.10;;;;;;;15.27;100.00;96274.97;5075592;28;20034;-88
2023/05/06 02:13:12;;;;;;;21.73;19.43;;;;;;;15.58;100.00;96272.00;5056990;28;20056;-88
2023/05/06 02:15:37;;;;;;;20.40;18.20;;;;;;;15.50;100.00;96274.78;5054739;28;20025;-87
2023/05/06 02:18:11;;;;;;;22.43;18.87;;;;;;;15.40;100.00;96269.00;5056514;28;20123;-87
2023/05/06 02:20:37;;;;;;;21.47;18.03;;;;;;;15.40;100.00;96269.00;5067999;28;20493;-87
2023/05/06 02:23:02;;;;;;;19.83;17.70;;;;;;;15.35;100.00;96274.00;5078728;28;20020;-87
2023/05/06 02:25:30;;;;;;;21.27;17.70;;;;;;;15.31;100.00;96274.38;5086219;28;20035;-87
2023/05/06 02:27:56;;;;;;;24.60;16.10;;;;;;;15.01;100.00;96275.47;5075059;28;20033;-87
2023/05/06 02:30:21;;;;;;;19.47;16.80;;;;;;;14.94;100.00;96280.69;5065662;28;20020;-87
2023/05/06 02:32:47;;;;;;;18.03;16.13;;;;;;;15.07;100.00;96285.34;5076267;28;20021;-88
2023/05/06 02:35:14;;;;;;;18.30;15.77;;;;;;;15.05;100.00;96282.84;5067555;28;20020;-87
2023/05/06 02:38:07;;;;;;;17.70;15.30;;;;;;;15.15;100.00;96287.03;5063216;28;20016;-87
2023/05/06 02:40:33;;;;;;;18.70;16.13;;;;;;;15.14;100.00;96275.63;5052921;28;20483;-87
2023/05/06 02:43:05;;;;;;;18.50;14.47;;;;;;;14.94;100.00;96274.56;5053342;28;20087;-88
2023/05/06 02:45:32;;;;;;;18.60;15.03;;;;;;;15.04;100.00;96277.75;5047608;28;20597;-86
2023/05/06 02:48:18;;;;;;;17.80;15.17;;;;;;;14.96;100.00;96272.59;5060362;28;20038;-88
2023/05/06 02:50:44;;;;;;;17.60;14.43;;;;;;;14.98;100.00;96271.38;5081938;28;20037;-85
2023/05/06 02:53:12;;;;;;;16.20;14.17;;;;;;;15.04;100.00;96267.16;5055817;28;20032;-88
2023/05/06 02:55:42;;;;;;;17.47;14.73;;;;;;;14.85;100.00;96277.34;5056681;28;20016;-87
2023/05/06 02:58:08;;;;;;;15.10;13.17;;;;;;;14.94;100.00;96272.75;5055971;28;20508;-87
2023/05/06 03:00:34;;;;;;;17.63;14.70;;;;;;;14.93;100.00;96267.66;5075537;28;20033;-86
2023/05/06 03:02:59;;;;;;;17.43;14.00;;;;;;;14.90;100.00;96268.03;5055161;28;20055;-87
2023/05/06 03:05:25;;;;;;;14.77;13.10;;;;;;;14.90;100.00;96273.31;5055721;28;20028;-87
2023/05/06 03:07:51;;;;;;;17.73;13.10;;;;;;;14.87;100.00;96273.69;5073875;28;20607;-87
2023/05/06 03:10:17;;;;;;;17.73;13.20;;;;;;;14.90;100.00;96268.03;5080433;28;20110;-87
2023/05/06 03:12:43;;;;;;;16.33;12.73;;;;;;;14.79;100.00;96269.31;5068975;28;20030;-87
2023/05/06 03:15:09;;;;;;;16.23;13.47;;;;;;;14.75;100.00;96268.84;5066406;28;20036;-87
2023/05/06 03:17:38;;;;;;;19.60;14.27;;;;;;;14.75;100.00;96268.03;5071014;28;20032;-87
2023/05/06 03:20:07;;;;;;;17.00;12.73;;;;;;;14.74;100.00;96269.84;5054362;28;20079;-87
2023/05/06 03:22:35;;;;;;;14.63;12.80;;;;;;;14.75;100.00;96279.44;5069503;28;20080;-88
2023/05/06 03:25:01;;;;;;;16.70;12.90;;;;;;;14.66;100.00;96275.25;5053943;28;20025;-87
2023/05/06 03:27:29;;;;;;;14.30;12.43;;;;;;;14.72;100.00;96279.81;5051175;28;20040;-87
2023/05/06 03:30:02;;;;;;;19.10;12.13;;;;;;;14.77;100.00;96274.78;5048403;28;20025;-87
2023/05/06 03:32:29;;;;;;;15.13;11.90;;;;;;;14.73;100.00;96273.50;5053906;28;20025;-87
2023/05/06 03:34:56;;;;;;;13.63;11.83;;;;;;;14.63;100.00;96272.97;5051131;28;20025;-87
2023/05/06 03:37:29;;;;;;;15.70;12.50;;;;;;;14.53;100.00;96283.03;5046809;28;20471;-86
2023/05/06 03:40:08;;;;;;;18.13;13.77;;;;;;;14.69;100.00;96272.25;5070893;28;20039;-87
2023/05/06 03:42:36;;;;;;;15.97;13.33;;;;;;;14.76;100.00;96278.44;5069846;28;20071;-87
2023/05/06 03:45:04;;;;;;;15.20;12.70;;;;;;;14.79;100.00;96272.78;5053007;28;20032;-87
2023/05/06 03:47:31;;;;;;;15.90;14.07;;;;;;;14.85;100.00;96261.47;5045458;28;20514;-87
2023/05/06 03:49:58;;;;;;;15.10;13.50;;;;;;;14.72;100.00;96271.88;5067329;28;20120;-87
2023/05/06 03:52:23;;;;;;;18.53;14.43;;;;;;;14.72;100.00;96271.88;5046761;28;20036;-87
2023/05/06 03:54:49;;;;;;;15.97;14.27;;;;;;;14.66;100.00;96269.16;5056655;28;20039;-87
2023/05/06 03:57:15;;;;;;;15.33;13.30;;;;;;;14.71;100.00;96264.94;5058722;28;20364;-88
2023/05/06 03:59:41;;;;;;;17.77;13.50;;;;;;;14.39;100.00;96271.41;5052313;28;20125;-87
2023/05/06 04:02:07;;;;;;;15.70;13.33;;;;;;;14.54;100.00;96263.47;5053479;28;20024;-88
2023/05/06 04:04:35;;;;;;;14.73;13.17;;;;;;;14.44;100.00;96262.91;5063370;28;20032;-87
2023/05/06 04:07:02;;;;;;;14.90;13.27;;;;;;;14.29;100.00;96254.97;5054521;28;20033;-88
2023/05/06 04:09:28;;;;;;;18.60;14.77;;;;;;;14.46;100.00;96267.03;5075397;28;20036;-87
2023/05/06 04:11:54;;;;;;;15.90;13.53;;;;;;;14.28;100.00;96262.06;5079035;28;20178;-87
2023/05/06 04:14:20;;;;;;;17.17;14.53;;;;;;;14.39;100.00;96269.56;5076571;28;20658;-87
2023/05/06 04:16:51;;;;;;;17.33;14.53;;;;;;;14.45;100.00;96270.66;5074440;28;20127;-87
2023/05/06 04:19:24;;;;;;;17.93;14.70;;;;;;;14.38;100.00;96270.59;5050736;28;20033;-87
2023/05/06 04:21:50;;;;;;;20.73;15.73;;;;;;;14.25;100.00;96273.03;5049283;28;20086;-87
2023/05/06 04:24:22;;;;;;;21.87;16.83;;;;;;;14.20;100.00;96270.09;5051800;28;20028;-87
2023/05/06 04:26:48;;;;;;;22.07;16.77;;;;;;;14.07;100.00;96262.78;5052712;28;20040;-87
2023/05/06 04:29:15;;;;;;;20.90;17.63;;;;;;;14.12;100.00;96264.91;5051620;28;20556;-87
2023/05/06 04:31:53;;;;;;;19.73;16.83;;;;;;;13.97;100.00;96256.13;5043113;28;20027;-88
2023/05/06 04:34:21;;;;;;;18.97;16.83;;;;;;;13.96;100.00;96260.59;5049950;28;20028;-87
2023/05/06 04:36:48;;;;;;;24.63;18.97;;;;;;;14.13;100.00;96267.34;5050424;28;20111;-86
2023/05/06 04:39:26;;;;;;;26.70;20.30;;;;;;;14.23;100.00;96267.09;5049292;28;20503;-87
2023/05/06 04:41:52;;;;;;;45.20;21.33;;;;;;;14.20;100.00;96266.63;5050475;28;20028;-87
2023/05/06 04:44:24;;;;;;;67.72;22.40;;;;;;;14.07;100.00;96267.25;5066212;28;20804;-87
2023/05/06 04:47:15;;;;;;;74.53;21.63;;;;;;;14.10;100.00;96262.41;5085210;28;20186;-87
2023/05/06 04:49:49;;;;;;;32.07;20.17;;;;;;;14.15;100.00;96275.94;5054292;28;20024;-87
2023/05/06 04:52:22;;;;;;;33.40;20.40;;;;;;;14.41;100.00;96277.31;5072713;28;20396;-85
2023/05/06 04:54:48;;;;;;;27.05;19.92;;;;;;;14.57;100.00;96281.66;5050108;28;20083;-85
2023/05/06 04:57:13;;;;;;;65.17;19.80;;;;;;;14.56;100.00;96270.25;5049818;28;20032;-85
2023/05/06 05:00:05;;;;;;;31.37;20.23;;;;;;;14.70;100.00;96276.53;5052792;28;20029;-85
2023/05/06 05:02:33;;;;;;;75.83;21.03;;;;;;;14.39;100.00;96287.28;5065488;28;20074;-85
2023/05/06 05:04:59;;;;;;;30.20;17.57;;;;;;;14.25;100.00;96280.97;5072877;28;20040;-85
2023/05/06 05:07:31;;;;;;;30.60;19.03;;;;;;;14.32;100.00;96291.66;5051691;28;20082;-86
2023/05/06 05:09:58;;;;;;;33.87;18.23;;;;;;;14.60;100.00;96289.22;5048195;28;20033;-85
2023/05/06 05:12:25;;;;;;;22.53;17.70;;;;;;;14.70;100.00;96287.13;5058587;28;20044;-84
2023/05/06 05:14:52;;;;;;;49.27;19.57;;;;;;;14.43;100.00;96298.31;5068532;28;20033;-84
2023/05/06 05:17:20;;;;;;;27.13;18.23;;;;;;;14.74;100.00;96290.22;5068910;28;20031;-85
2023/05/06 05:20:00;;;;;;;31.83;17.97;;;;;;;14.54;100.00;96301.34;5051780;28;20039;-85
2023/05/06 05:22:33;;;;;;;58.77;18.50;;;;;;;14.69;100.00;96309.31;5062114;28;20067;-85
2023/05/06 05:24:59;;;;;;;83.97;19.70;;;;;;;14.49;100.00;96309.00;5068430;28;20033;-85
2023/05/06 05:27:26;;;;;;;77.40;18.33;;;;;;;14.35;100.00;96312.44;5068297;28;20037;-85
2023/05/06 05:29:53;;;;;;;39.57;18.40;;;;;;;14.22;100.00;96309.56;5050553;28;20025;-85
2023/05/06 05:32:20;;;;;;;34.80;16.23;;;;;;;14.35;100.00;96313.28;5062637;28;20386;-85
2023/05/06 05:34:49;;;;;;;27.07;18.23;;;;;;;14.60;100.00;96324.44;5052137;28;20033;-85
2023/05/06 05:37:16;;;;;;;19.23;15.60;;;;;;;14.57;100.00;96321.34;5068082;28;20024;-85
2023/05/06 05:39:42;;;;;;;30.00;17.17;;;;;;;14.41;100.00;96326.75;5050713;28;20455;-85
2023/05/06 05:42:16;;;;;;;31.13;16.23;;;;;;;14.73;100.00;96321.16;5067894;28;20048;-85
2023/05/06 05:44:44;;;;;;;23.83;15.90;;;;;;;14.77;100.00;96319.78;5041578;28;20071;-86
2023/05/06 05:47:10;;;;;;;23.27;15.83;;;;;;;14.68;100.00;96318.22;5067707;28;20053;-84
2023/05/06 05:49:43;;;;;;;28.77;15.20;;;;;;;14.68;100.00;96326.16;5071881;28;20456;-84
2023/05/06 05:52:09;;;;;;;20.90;14.63;;;;;;;14.76;100.00;96328.75;5055587;28;20040;-85
2023/05/06 05:54:40;;;;;;;23.20;15.20;;;;;;;14.92;100.00;96329.53;5071432;28;20028;-85
2023/05/06 05:57:16;;;;;;;23.20;15.53;;;;;;;15.21;100.00;96323.38;5060405;28;20215;-85
2023/05/06 05:59:42;;;;;;;26.03;22.10;;;;;;;15.42;100.00;96325.25;5055201;28;20040;-85
2023/05/06 06:02:07;;;;;;;19.63;16.53;;;;;;;15.59;100.00;96328.50;5052000;28;20039;-84
2023/05/06 06:04:33;;;;;;;23.87;18.30;;;;;;;15.37;100.00;96332.97;5072741;28;20429;-85
2023/05/06 06:07:00;;;;;;;20.27;15.57;;;;;;;15.25;100.00;96335.25;5056196;28;20043;-84
2023/05/06 06:09:28;;;;;;;18.70;15.67;;;;;;;15.52;100.00;96331.88;5067628;28;20105;-86
2023/05/06 06:11:54;;;;;;;16.87;15.07;;;;;;;15.56;100.00;96335.00;5057036;28;20127;-84
2023/05/06 06:14:20;;;;;;;18.30;14.33;;;;;;;15.46;100.00;96339.75;5046017;28;20120;-85
2023/05/06 06:16:48;;;;;;;17.57;13.90;;;;;;;15.46;100.00;96331.81;5049051;28;20059;-85
2023/05/06 06:19:14;;;;;;;15.87;14.03;;;;;;;15.37;100.00;96341.72;5051956;28;20033;-85
2023/05/06 06:21:41;;;;;;;18.57;15.23;;;;;;;15.55;100.00;96341.31;5071495;28;20127;-85
2023/05/06 06:24:06;;;;;;;18.77;15.40;;;;;;;15.88;100.00;96343.50;5064616;28;20033;-85
2023/05/06 06:29:43;;;;;;;17.83;14.43;;;;;;;16.83;100.00;96323.63;5070751;28;20094;-85
2023/05/06 06:32:08;;;;;;;15.20;13.07;;;;;;;16.93;100.00;96329.38;5057929;28;20047;-85
2023/05/06 06:34:34;;;;;;;19.70;14.37;;;;;;;17.09;100.00;96323.75;5046614;28;20660;-85
2023/05/06 06:37:01;;;;;;;15.03;12.87;;;;;;;17.00;100.00;96332.06;5076785;28;20036;-85
2023/05/06 06:39:34;;;;;;;12.60;11.30;;;;;;;16.76;100.00;96325.41;5051871;28;20037;-85
2023/05/06 06:42:29;;;;;;;13.77;10.35;;;;;;;16.92;100.00;96333.06;5049902;28;20036;-85
2023/05/06 06:45:13;;;;;;;14.47;10.90;;;;;;;17.43;100.00;96324.69;5051027;28;20175;-85
2023/05/06 06:47:40;;;;;;;11.48;9.77;;;;;;;17.39;100.00;96323.47;5047728;28;20040;-85
2023/05/06 06:50:07;;;;;;;9.63;8.40;;;;;;;18.27;100.00;96310.91;5050847;28;20123;-85
2023/05/06 06:52:34;;;;;;;10.25;8.93;;;;;;;19.36;100.00;96314.78;5051331;28;20090;-86
2023/05/06 06:55:03;;;;;;;9.30;7.15;;;;;;;18.35;100.00;96316.03;5066830;28;20060;-85
2023/05/06 06:57:31;;;;;;;9.32;7.28;;;;;;;19.09;100.00;96311.41;5055042;28;20029;-86
2023/05/06 06:59:57;;;;;;;7.63;6.35;;;;;;;19.10;100.00;96309.56;5055219;28;20028;-84
2023/05/06 07:02:38;;;;;;;10.75;7.38;;;;;;;18.53;100.00;96315.41;5055021;28;20556;-86
2023/05/06 07:05:04;;;;;;;8.70;6.45;;;;;;;18.26;100.00;96314.59;5054405;28;20501;-86
2023/05/06 07:07:33;;;;;;;7.35;5.65;;;;;;;19.08;100.00;96313.25;5075146;28;20025;-86
2023/05/06 07:10:02;;;;;;;8.55;6.07;;;;;;;19.36;100.00;96314.78;5061537;28;20071;-86
2023/05/06 07:12:32;;;;;;;8.55;6.15;;;;;;;19.98;100.00;96310.53;5075446;28;20028;-86
2023/05/06 07:14:58;;;;;;;8.43;5.70;;;;;;;20.46;100.00;96303.81;5055071;28;20025;-86
2023/05/06 07:17:24;;;;;;;6.95;4.35;;;;;;;20.76;100.00;96306.63;5047146;28;20502;-86
2023/05/06 07:19:49;;;;;;;7.95;4.93;;;;;;;20.47;100.00;96306.25;5089690;28;20047;-86
2023/05/06 07:22:28;;;;;;;6.50;4.70;;;;;;;21.15;100.00;96310.69;5057002;28;20104;-86
2023/05/06 07:24:54;;;;;;;6.15;4.53;;;;;;;20.90;100.00;96323.34;5054500;28;20032;-86
2023/05/06 07:27:20;;;;;;;6.75;3.92;;;;;;;21.13;100.00;96320.81;5069883;28;20044;-86
2023/05/06 07:29:47;;;;;;;6.78;4.32;;;;;;;21.20;100.00;96326.09;5077381;28;20878;-86
2023/05/06 07:32:13;;;;;;;6.82;4.05;;;;;;;21.80;100.00;96325.34;5078102;28;20037;-86
2023/05/06 07:34:39;;;;;;;6.43;4.40;;;;;;;20.68;100.00;96326.41;5060814;28;20094;-86
2023/05/06 07:37:06;;;;;;;7.03;3.97;;;;;;;21.81;100.00;96317.06;5063488;28;20039;-87
2023/05/06 07:39:37;;;;;;;6.93;3.63;;;;;;;21.94;100.00;96320.59;5052762;28;20105;-86
2023/05/06 07:42:11;;;;;;;6.32;3.38;;;;;;;21.67;100.00;96321.00;5051376;28;20040;-86
2023/05/06 07:44:38;;;;;;;6.15;3.08;;;;;;;23.06;100.00;96318.72;5063301;28;20112;-87
2023/05/06 07:47:04;;;;;;;5.85;2.72;;;;;;;23.17;100.00;96325.16;5070008;28;20161;-87
2023/05/06 07:49:32;;;;;;;5.63;3.35;;;;;;;22.38;100.00;96322.00;5056649;28;20426;-87
2023/05/06 07:51:58;;;;;;;6.57;3.15;;;;;;;23.18;100.00;96321.41;5051823;28;20036;-87
2023/05/06 07:54:34;;;;;;;7.78;4.68;;;;;;;22.39;100.00;96325.50;5054415;28;20030;-87
2023/05/06 07:57:01;;;;;;;6.40;4.03;;;;;;;21.55;100.00;96328.13;5071764;28;20394;-88
2023/05/06 07:59:26;;;;;;;4.25;3.05;;;;;;;20.68;100.00;96337.09;5055605;28;20131;-88
2023/05/06 08:01:52;;;;;;;5.05;2.63;;;;;;;20.17;100.00;96332.78;5087421;28;20096;-88
2023/05/06 08:04:24;;;;;;;5.80;2.85;;;;;;;21.60;100.00;96330.97;5064057;28;20033;-84
2023/05/06 08:07:04;;;;;;;6.43;2.80;;;;;;;22.81;100.00;96327.03;5053772;28;20040;-87
2023/05/06 08:09:32;;;;;;;5.57;2.58;;;;;;;23.30;100.00;96332.91;5053387;28;20442;-86
2023/05/06 08:11:59;;;;;;;4.82;2.40;;;;;;;25.03;100.00;96320.84;5072890;28;20059;-86
2023/05/06 08:14:26;;;;;;;5.20;3.15;;;;;;;24.55;100.00;96326.88;5053393;28;20034;-86
2023/05/06 08:16:52;;;;;;;5.30;2.90;;;;;;;24.71;100.00;96331.41;5072098;28;20024;-86
2023/05/06 08:19:20;;;;;;;3.78;2.20;;;;;;;23.69;100.00;96327.00;5071244;28;20036;-87
2023/05/06 08:21:47;;;;;;;4.80;2.38;;;;;;;23.78;100.00;96330.13;5064066;28;20483;-86
2023/05/06 08:24:15;;;;;;;2.83;1.73;;;;;;;24.48;100.00;96335.13;5066924;28;20038;-87
2023/05/06 08:27:01;;;;;;;5.75;1.70;;;;;;;25.16;100.00;96331.28;5070518;28;20114;-87
2023/05/06 08:29:26;;;;;;;4.20;2.33;;;;;;;25.44;100.00;96326.78;5051793;28;20033;-87
2023/05/06 08:31:56;;;;;;;1.73;1.00;;;;;;;24.77;100.00;96327.75;5060025;28;20036;-87
2023/05/06 08:34:21;;;;;;;2.15;1.05;;;;;;;25.27;100.00;96332.22;5064761;28;20124;-88
2023/05/06 08:36:51;;;;;;;2.28;1.08;;;;;;;25.68;100.00;96326.50;5064077;28;20147;-87
2023/05/06 08:39:22;;;;;;;4.20;1.77;;;;;;;25.07;100.00;96331.94;5056834;28;20050;-88
2023/05/06 08:41:56;;;;;;;3.35;1.25;;;;;;;24.62;100.00;96344.47;5049800;28;20036;-87
2023/05/06 08:44:24;;;;;;;4.80;1.70;;;;;;;25.29;100.00;96334.69;5069711;28;20161;-88
2023/05/06 08:46:58;;;;;;;2.97;1.25;;;;;;;25.02;100.00;96335.38;5047009;28;20499;-87
2023/05/06 08:49:27;;;;;;;2.55;1.30;;;;;;;24.83;100.00;96331.34;5065914;28;20040;-86
2023/05/06 08:51:53;;;;;;;4.72;1.23;;;;;;;25.78;100.00;96321.22;5064688;28;20455;-85
2023/05/06 08:54:19;;;;;;;3.92;1.40;;;;;;;25.27;100.00;96332.22;5051688;28;20135;-89
2023/05/06 08:56:52;;;;;;;2.65;1.23;;;;;;;25.19;100.00;96326.47;5067839;28;20081;-90
2023/05/06 08:59:29;;;;;;;3.30;1.27;;;;;;;26.32;95.08;96322.06;5070225;28;20033;-93
2023/05/06 09:02:00;;;;;;;7.35;4.28;;;;;;;24.97;100.00;96327.22;5051582;28;20079;-92
2023/05/06 09:04:26;;;;;;;2.53;1.45;;;;;;;25.25;100.00;96322.75;5049766;28;20040;-90
2023/05/06 09:06:57;;;;;;;1.42;0.93;;;;;;;23.95;100.00;96331.78;5049168;28;20552;-91
2023/05/06 09:09:25;;;;;;;1.58;1.00;;;;;;;26.14;93.31;96321.63;5053265;28;20028;-91
2023/05/06 09:12:01;;;;;;;2.55;1.48;;;;;;;26.35;92.30;96323.41;5071947;28;20028;-91
2023/05/06 09:14:28;;;;;;;9.82;6.80;;;;;;;26.73;89.78;96324.28;5053727;28;20391;-91
2023/05/06 09:16:54;;;;;;;8.95;2.10;;;;;;;26.65;91.41;96322.84;5054933;28;20035;-91
2023/05/06 09:19:22;;;;;;;1.75;1.08;;;;;;;26.46;85.21;96319.75;5054073;28;20036;-83
2023/05/06 09:21:49;;;;;;;1.25;0.90;;;;;;;25.89;87.01;96331.09;5055083;28;20051;-83
2023/05/06 09:24:15;;;;;;;4.45;0.98;;;;;;;25.24;88.50;96327.34;5074696;28;20051;-91
2023/05/06 09:57:17;;;;;;;1.75;0.93;;;;;;;24.84;90.70;96323.00;5083766;28;20027;-91
2023/05/06 09:59:46;;;;;;;3.03;1.10;;;;;;;24.28;85.17;96323.97;5079319;28;20036;-87
2023/05/06 10:02:16;;;;;;;3.08;0.80;;;;;;;25.61;84.50;96324.81;5078116;28;20064;-87
2023/05/06 10:04:44;;;;;;;1.77;1.00;;;;;;;26.29;81.83;96316.34;5072158;28;20093;-87
2023/05/06 10:07:14;;;;;;;2.88;1.10;;;;;;;26.13;80.08;96315.41;5076079;28;20032;-87
2023/05/06 10:09:41;;;;;;;2.92;1.25;;;;;;;24.60;91.77;96314.31;5059719;28;20031;-87
2023/05/06 10:12:17;;;;;;;1.63;1.20;;;;;;;23.89;100.00;96315.81;5071283;28;20485;-87
2023/05/06 10:14:42;;;;;;;6.35;4.25;;;;;;;23.26;100.00;96320.22;5065630;28;20044;-87
2023/05/06 10:17:10;;;;;;;5.32;2.00;;;;;;;24.04;100.00;96309.88;5094766;28;20040;-87
2023/05/06 10:19:39;;;;;;;3.58;1.10;;;;;;;24.12;100.00;96302.25;5049286;28;20039;-87
2023/05/06 10:22:27;;;;;;;2.05;1.30;;;;;;;23.91;100.00;96314.53;5055381;28;20098;-87
2023/05/06 10:25:18;;;;;;;2.55;1.05;;;;;;;24.53;94.26;96304.81;5055794;28;20642;-87
2023/05/06 10:27:47;;;;;;;3.53;1.45;;;;;;;25.38;95.55;96300.84;5068855;28;20032;-87
2023/05/06 10:30:17;;;;;;;3.30;1.70;;;;;;;24.64;100.00;96296.63;5076339;28;20042;-87
2023/05/06 10:32:44;;;;;;;4.90;1.92;;;;;;;25.89;97.15;96290.69;5056306;28;20839;-87
2023/05/06 10:36:01;;;;;;;5.57;2.00;;;;;;;25.69;100.00;96285.88;5053662;28;20460;-86
2023/05/06 10:38:53;;;;;;;4.00;2.00;;;;;;;24.37;99.69;96291.09;5062459;28;20402;-87
2023/05/06 10:41:21;;;;;;;3.20;1.35;;;;;;;24.22;93.96;96294.34;5064742;28;20210;-87
2023/05/06 10:43:58;;;;;;;2.67;1.65;;;;;;;23.51;97.40;96298.44;5085278;28;20557;-87
2023/05/06 10:46:29;;;;;;;3.55;1.25;;;;;;;23.82;96.92;96294.47;5053513;28;20042;-87
2023/05/06 10:49:05;;;;;;;2.67;1.20;;;;;;;24.54;96.79;96285.72;5054523;28;20441;-87
2023/05/06 10:51:37;;;;;;;3.03;1.20;;;;;;;25.45;88.41;96274.53;5068600;28;20053;-87
2023/05/06 10:54:19;;;;;;;11.50;6.18;;;;;;;24.77;94.40;96281.22;5060682;28;20044;-87
2023/05/06 10:56:57;;;;;;;4.88;2.30;;;;;;;23.56;100.00;96285.09;5070405;28;20028;-88
2023/05/06 10:59:45;;;;;;;3.85;2.35;;;;;;;23.95;100.00;96282.63;5071890;28;20040;-87
2023/05/06 11:02:11;;;;;;;3.63;1.83;;;;;;;23.18;100.00;96283.84;5072420;28;20031;-88
2023/05/06 11:04:38;;;;;;;4.25;2.33;;;;;;;22.78;100.00;96292.63;5052737;28;20035;-88
2023/05/06 11:07:14;;;;;;;3.65;1.90;;;;;;;22.55;100.00;96289.97;5079668;28;20032;-88
2023/05/06 11:09:58;;;;;;;4.03;1.80;;;;;;;23.49;100.00;96282.56;5067528;28;20032;-88
2023/05/06 11:12:59;;;;;;;2.75;1.70;;;;;;;24.13;99.20;96279.69;5076053;28;20126;-89
2023/05/06 11:15:38;;;;;;;6.22;2.33;;;;;;;24.52;99.05;96277.09;5061204;28;20501;-88
2023/05/06 11:18:30;;;;;;;3.38;1.98;;;;;;;24.16;99.22;96281.06;5075683;28;20055;-87
2023/05/06 11:21:01;;;;;;;3.78;1.60;;;;;;;24.34;94.55;96274.63;5068038;28;20024;-88
2023/05/06 11:23:42;;;;;;;3.58;1.48;;;;;;;24.05;100.00;96276.59;5073982;28;20035;-87
2023/05/06 11:26:08;;;;;;;5.45;2.90;;;;;;;24.39;99.91;96274.72;5075505;28;20039;-87
2023/05/06 11:28:50;;;;;;;3.15;1.33;;;;;;;24.96;100.00;96271.78;5058355;28;20125;-87
2023/05/06 11:31:16;;;;;;;2.45;1.35;;;;;;;24.64;97.28;96275.13;5055624;28;20028;-85
2023/05/06 11:33:51;;;;;;;3.58;1.60;;;;;;;23.45;100.00;96277.94;5073154;28;20091;-85
2023/05/06 11:36:18;;;;;;;3.95;1.80;;;;;;;24.16;97.91;96268.47;5077592;28;20028;-77
2023/05/06 11:38:46;;;;;;;4.00;1.75;;;;;;;24.10;100.00;96269.41;5052216;28;20020;-77
2023/05/06 11:41:48;;;;;;;4.57;1.85;;;;;;;23.67;100.00;96278.03;5071291;28;20103;-78
2023/05/06 11:44:37;;;;;;;4.70;1.73;;;;;;;24.12;93.38;96272.69;5077289;28;20065;-79
2023/05/06 11:47:05;;;;;;;4.15;1.88;;;;;;;23.89;100.00;96262.91;5093216;28;20032;-90
2023/05/06 11:49:40;;;;;;;2.45;1.27;;;;;;;23.26;100.00;96270.03;5053074;28;20109;-84
2023/05/06 11:52:10;;;;;;;5.00;1.60;;;;;;;24.09;93.71;96267.00;5068826;28;20051;-82
2023/05/06 11:54:43;;;;;;;2.15;1.50;;;;;;;23.33;94.62;96277.16;5084704;28;20111;-85
2023/05/06 11:57:08;;;;;;;2.60;1.35;;;;;;;23.87;97.14;96264.19;5071999;28;20031;-83
2023/05/06 11:59:37;;;;;;;5.88;3.88;;;;;;;24.90;90.90;96267.41;5071599;28;20032;-84
2023/05/06 12:02:07;;;;;;;4.30;1.40;;;;;;;23.97;94.47;96265.19;5070988;28;20097;-83
2023/05/06 12:04:40;;;;;;;3.78;1.42;;;;;;;24.17;88.17;96264.69;5048226;28;20520;-80
2023/05/06 12:07:15;;;;;;;2.63;1.60;;;;;;;23.35;95.21;96269.69;5089260;28;20093;-84